createdAt,value
2023-04-23T00:01:06.694Z,100286.38
2023-04-23T00:03:59.088Z,100269.91
2023-04-23T00:06:48.275Z,100281.72
2023-04-23T00:09:36.409Z,100277.75
2023-04-23T00:12:24.634Z,100247.47
2023-04-23T00:15:14.076Z,100267.97
2023-04-23T00:18:01.777Z,100283.44
2023-04-23T00:20:49.597Z,100255.09
2023-04-23T00:23:37.202Z,100283.28
2023-04-23T00:26:24.884Z,100272.00
2023-04-23T00:29:13.045Z,100270.53
2023-04-23T00:32:00.999Z,100270.59
2023-04-23T00:34:52.048Z,100280.41
2023-04-23T00:37:39.751Z,100261.25
2023-04-23T00:40:27.551Z,100277.97
2023-04-23T00:43:15.680Z,100273.16
2023-04-23T00:46:03.725Z,100264.13
2023-04-23T00:48:52.624Z,100274.59
2023-04-23T00:51:40.738Z,100274.91
2023-04-23T00:54:28.759Z,100280.56
2023-04-23T00:57:17.243Z,100280.44
2023-04-23T01:00:06.178Z,100266.56
2023-04-23T01:02:54.424Z,100278.50
2023-04-23T01:05:47.972Z,100282.19
2023-04-23T01:08:43.918Z,100254.94
2023-04-23T01:11:32.354Z,100280.28
2023-04-23T01:14:20.834Z,100281.59
2023-04-23T01:17:12.583Z,100250.59
2023-04-23T01:20:00.585Z,100289.47
2023-04-23T01:22:48.361Z,100285.13
2023-04-23T01:25:36.258Z,100281.91
2023-04-23T01:28:24.220Z,100289.31
2023-04-23T01:31:14.176Z,100268.81
2023-04-23T01:34:03.612Z,100289.47
2023-04-23T01:36:52.553Z,100291.41
2023-04-23T01:39:40.237Z,100243.66
2023-04-23T01:42:27.942Z,100298.03
2023-04-23T01:45:17.895Z,100295.94
2023-04-23T01:48:05.995Z,100283.34
2023-04-23T01:50:54.360Z,100278.69
2023-04-23T01:53:42.123Z,100290.94
2023-04-23T01:56:30.950Z,100286.56
2023-04-23T01:59:18.746Z,100284.63
2023-04-23T02:02:10.905Z,100281.72
2023-04-23T02:05:01.140Z,100263.34
2023-04-23T02:07:52.208Z,100291.53
2023-04-23T02:10:40.295Z,100290.72
2023-04-23T02:13:28.029Z,100298.47
2023-04-23T02:16:16.525Z,100287.00
2023-04-23T02:19:04.476Z,100272.31
2023-04-23T02:21:52.302Z,100313.28
2023-04-23T02:24:42.584Z,100304.91
2023-04-23T02:27:30.411Z,100290.22
2023-04-23T02:30:18.244Z,100303.59
2023-04-23T02:33:06.298Z,100301.97
2023-04-23T02:35:54.228Z,100307.13
2023-04-23T02:38:42.696Z,100273.41
2023-04-23T02:41:30.384Z,100294.41
2023-04-23T02:44:18.215Z,100292.31
2023-04-23T02:47:06.079Z,100276.19
2023-04-23T02:49:54.044Z,100276.63
2023-04-23T02:52:41.742Z,100265.31
2023-04-23T02:55:30.126Z,100291.78
2023-04-23T02:58:17.938Z,100292.28
2023-04-23T03:01:09.428Z,100255.50
2023-04-23T03:03:57.567Z,100280.97
2023-04-23T03:06:45.610Z,100265.00
2023-04-23T03:09:33.286Z,100289.50
2023-04-23T03:12:21.086Z,100274.03
2023-04-23T03:15:09.719Z,100288.19
2023-04-23T03:17:58.202Z,100284.78
2023-04-23T03:20:46.654Z,100259.09
2023-04-23T03:23:34.550Z,100281.84
2023-04-23T03:26:22.220Z,100280.59
2023-04-23T03:29:10.922Z,100251.38
2023-04-23T03:31:59.007Z,100293.16
2023-04-23T03:34:46.874Z,100294.59
2023-04-23T03:37:36.058Z,100294.59
2023-04-23T03:40:25.699Z,100185.19
2023-04-23T03:43:18.146Z,100286.63
2023-04-23T03:46:23.950Z,100266.16
2023-04-23T03:49:12.980Z,100284.38
2023-04-23T03:52:00.774Z,100286.63
2023-04-23T03:54:53.318Z,100298.06
2023-04-23T03:57:46.735Z,100258.97
2023-04-23T04:00:42.326Z,100300.63
2023-04-23T04:03:30.177Z,100308.56
2023-04-23T04:06:18.092Z,100322.44
2023-04-23T04:09:08.303Z,100321.69
2023-04-23T04:11:56.376Z,100317.53
2023-04-23T04:14:46.168Z,100289.97
2023-04-23T04:17:34.003Z,100282.44
2023-04-23T04:20:21.668Z,100301.66
2023-04-23T04:23:09.309Z,100319.91
2023-04-23T04:25:57.981Z,100315.91
2023-04-23T04:28:45.729Z,100320.59
2023-04-23T04:31:33.821Z,100329.47
2023-04-23T04:34:21.746Z,100318.19
2023-04-23T04:37:11.181Z,100320.63
2023-04-23T04:39:58.908Z,100341.59
2023-04-23T04:42:47.320Z,100337.06
2023-04-23T04:45:35.319Z,100342.19
2023-04-23T04:48:23.032Z,100332.25
2023-04-23T04:51:10.859Z,100328.53
2023-04-23T04:53:58.898Z,100328.84
2023-04-23T04:56:46.861Z,100326.28
2023-04-23T04:59:34.637Z,100328.09
2023-04-23T05:02:23.609Z,100323.09
2023-04-23T05:05:11.532Z,100320.03
2023-04-23T05:08:05.070Z,100313.28
2023-04-23T05:10:54.382Z,100315.13
2023-04-23T05:13:42.516Z,100276.19
2023-04-23T05:16:30.455Z,100315.38
2023-04-23T05:19:21.043Z,100302.72
2023-04-23T05:22:08.766Z,100289.69
2023-04-23T05:24:56.582Z,100281.13
2023-04-23T05:27:44.379Z,100285.09
2023-04-23T05:30:32.006Z,100317.31
2023-04-23T05:33:19.715Z,100313.53
2023-04-23T05:36:08.480Z,100318.41
2023-04-23T05:38:56.187Z,100301.19
2023-04-23T05:41:43.910Z,100313.81
2023-04-23T05:44:32.339Z,100329.44
2023-04-23T05:47:20.159Z,100325.50
2023-04-23T05:50:08.337Z,100329.84
2023-04-23T05:52:56.072Z,100307.34
2023-04-23T05:55:45.404Z,100303.13
2023-04-23T05:58:35.958Z,100300.16
2023-04-23T06:01:36.798Z,100314.06
2023-04-23T06:04:25.270Z,100289.59
2023-04-23T06:07:18.862Z,100313.50
2023-04-23T06:10:07.398Z,100315.47
2023-04-23T06:12:56.040Z,100316.72
2023-04-23T06:15:46.168Z,100314.13
2023-04-23T06:18:33.904Z,100326.69
2023-04-23T06:21:21.755Z,100300.28
2023-04-23T06:24:10.083Z,100321.38
2023-04-23T06:26:58.070Z,100304.75
2023-04-23T06:29:47.288Z,100320.84
2023-04-23T06:32:35.053Z,100318.88
2023-04-23T06:35:22.844Z,100316.63
2023-04-23T06:38:10.653Z,100296.97
2023-04-23T06:40:59.161Z,100317.41
2023-04-23T06:43:48.538Z,100319.41
2023-04-23T06:46:42.090Z,100308.06
2023-04-23T06:49:29.796Z,100306.66
2023-04-23T06:52:17.538Z,100305.81
2023-04-23T06:55:05.581Z,100309.81
2023-04-23T06:57:53.700Z,100311.16
2023-04-23T07:00:42.118Z,100314.53
2023-04-23T07:03:31.150Z,100272.66
2023-04-23T07:06:18.825Z,100304.19
2023-04-23T07:09:06.624Z,100283.75
2023-04-23T07:11:54.418Z,100256.97
2023-04-23T07:14:42.350Z,100315.97
2023-04-23T07:17:31.272Z,100302.72
2023-04-23T07:20:19.064Z,100293.56
2023-04-23T07:23:06.914Z,100307.91
2023-04-23T07:25:54.580Z,100303.56
2023-04-23T07:28:42.377Z,100319.69
2023-04-23T07:31:30.169Z,100298.56
2023-04-23T07:34:17.852Z,100260.59
2023-04-23T07:37:05.618Z,100272.41
2023-04-23T07:39:54.172Z,100296.25
2023-04-23T07:42:41.871Z,100299.63
2023-04-23T07:45:32.239Z,100301.28
2023-04-23T07:48:19.913Z,100303.97
2023-04-23T07:51:08.733Z,100293.59
2023-04-23T07:53:58.397Z,100285.69
2023-04-23T07:56:51.648Z,100292.28
2023-04-23T07:59:42.296Z,100272.78
2023-04-23T08:02:30.344Z,100289.66
2023-04-23T08:05:18.158Z,100267.31
2023-04-23T08:08:05.892Z,100291.34
2023-04-23T08:10:53.609Z,100285.09
2023-04-23T08:13:41.231Z,100282.16
2023-04-23T08:16:30.792Z,100277.13
2023-04-23T08:19:18.863Z,100253.44
2023-04-23T08:22:06.650Z,100289.31
2023-04-23T08:24:57.170Z,100302.47
2023-04-23T08:27:44.888Z,100284.41
2023-04-23T08:30:32.849Z,100227.13
2023-04-23T08:33:23.884Z,100255.84
2023-04-23T08:36:11.535Z,100264.41
2023-04-23T08:39:00.908Z,100273.22
2023-04-23T08:41:55.159Z,100246.47
2023-04-23T08:44:44.068Z,100268.00
2023-04-23T08:47:32.872Z,100254.75
2023-04-23T08:50:20.621Z,100230.88
2023-04-23T08:53:08.729Z,100264.97
2023-04-23T08:55:59.924Z,100257.88
2023-04-23T08:58:47.751Z,100254.50
2023-04-23T09:01:38.294Z,100222.09
2023-04-23T09:04:29.421Z,100241.88
2023-04-23T09:07:17.970Z,100241.50
2023-04-23T09:10:08.280Z,100246.81
2023-04-23T09:12:55.990Z,100255.63
2023-04-23T09:15:44.102Z,100200.13
2023-04-23T09:18:31.738Z,100257.03
2023-04-23T09:21:19.702Z,100239.69
2023-04-23T09:24:12.076Z,100232.69
2023-04-23T09:26:59.881Z,100251.81
2023-04-23T09:29:49.210Z,100244.47
2023-04-23T09:32:42.582Z,100235.59
2023-04-23T09:35:30.302Z,100221.34
2023-04-23T09:38:20.184Z,100229.88
2023-04-23T09:41:27.896Z,100237.97
2023-04-23T09:44:19.635Z,100227.84
2023-04-23T09:47:13.176Z,100231.66
2023-04-23T09:50:04.793Z,100220.16
2023-04-23T09:52:56.785Z,100229.25
2023-04-23T09:55:45.223Z,100226.19
2023-04-23T09:58:32.937Z,100221.63
2023-04-23T10:01:28.821Z,100208.44
2023-04-23T10:04:23.838Z,100228.13
2023-04-23T10:10:05.118Z,100203.78
2023-04-23T10:12:55.758Z,100209.59
2023-04-23T10:15:46.794Z,100192.63
2023-04-23T10:18:34.718Z,100184.16
2023-04-23T10:21:42.557Z,100159.09
2023-04-23T10:24:41.831Z,100168.97
2023-04-23T10:27:44.664Z,100178.78
2023-04-23T10:30:40.225Z,100187.81
2023-04-23T10:33:37.616Z,100172.34
2023-04-23T10:36:33.985Z,100170.88
2023-04-23T10:39:29.832Z,100139.06
2023-04-23T10:42:18.420Z,100157.75
2023-04-23T10:48:09.838Z,100127.16
2023-04-23T10:53:52.627Z,100131.31
2023-04-23T10:56:41.549Z,100132.13
2023-04-23T10:59:34.131Z,100107.91
2023-04-23T11:02:24.544Z,100137.91
2023-04-23T11:05:12.278Z,100109.44
2023-04-23T11:08:18.316Z,100140.47
2023-04-23T11:11:09.762Z,100138.72
2023-04-23T11:13:59.673Z,100136.53
2023-04-23T11:16:49.190Z,100130.91
2023-04-23T11:19:42.014Z,100113.59
2023-04-23T11:22:46.514Z,100130.91
2023-04-23T11:25:36.124Z,100104.44
2023-04-23T11:28:24.085Z,100132.56
2023-04-23T11:31:11.737Z,100132.94
2023-04-23T11:33:59.659Z,100105.34
2023-04-23T11:36:49.831Z,100126.13
2023-04-23T11:39:37.732Z,100118.69
2023-04-23T11:42:26.144Z,100099.59
2023-04-23T11:45:20.786Z,100099.34
2023-04-23T11:48:08.480Z,100075.69
2023-04-23T11:50:56.528Z,100102.41
2023-04-23T11:53:49.988Z,100112.34
2023-04-23T11:56:38.463Z,100101.78
2023-04-23T11:59:26.619Z,100100.19
2023-04-23T12:02:14.654Z,100021.97
2023-04-23T12:05:06.486Z,100102.00
2023-04-23T12:07:54.934Z,100064.25
2023-04-23T12:10:45.798Z,100079.16
2023-04-23T12:13:34.106Z,100049.44
2023-04-23T12:16:40.203Z,100042.25
2023-04-23T12:19:29.911Z,100040.81
2023-04-23T12:22:17.658Z,100063.13
2023-04-23T12:25:09.855Z,100050.41
2023-04-23T12:28:04.102Z,100063.13
2023-04-23T12:30:52.505Z,100039.97
2023-04-23T12:33:40.196Z,100010.69
2023-04-23T12:36:32.765Z,100011.59
2023-04-23T12:39:21.991Z,100049.38
2023-04-23T12:42:10.732Z,100009.34
2023-04-23T12:45:07.504Z,99970.84
2023-04-23T12:47:57.802Z,100018.88
2023-04-23T12:50:46.805Z,100006.13
2023-04-23T12:53:34.508Z,100015.53
2023-04-23T12:56:22.142Z,100017.13
2023-04-23T12:59:10.101Z,100011.00
2023-04-23T13:02:02.800Z,99997.97
2023-04-23T13:04:51.417Z,100012.94
2023-04-23T13:07:39.145Z,99969.38
2023-04-23T13:10:28.370Z,99969.22
2023-04-23T13:13:16.216Z,99993.06
2023-04-23T13:16:04.035Z,99994.97
2023-04-23T13:18:54.845Z,99977.16
2023-04-23T13:21:43.641Z,99997.16
2023-04-23T13:24:31.364Z,99979.66
2023-04-23T13:27:19.103Z,99993.97
2023-04-23T13:30:07.405Z,99992.06
2023-04-23T13:32:57.122Z,99994.28
2023-04-23T13:35:44.864Z,99984.81
2023-04-23T13:38:33.112Z,100001.84
2023-04-23T13:41:20.917Z,99977.16
2023-04-23T13:44:08.894Z,99972.19
2023-04-23T13:46:58.768Z,99980.84
2023-04-23T13:49:46.558Z,99946.56
2023-04-23T13:52:35.494Z,99978.41
2023-04-23T13:55:23.321Z,99956.22
2023-04-23T13:58:14.023Z,99989.31
2023-04-23T14:01:16.079Z,99977.88
2023-04-23T14:04:13.646Z,99945.09
2023-04-23T14:07:04.001Z,99961.78
2023-04-23T14:09:53.040Z,99973.63
2023-04-23T14:12:41.488Z,99963.63
2023-04-23T14:15:29.281Z,99968.44
2023-04-23T14:18:17.380Z,99950.28
2023-04-23T14:21:05.465Z,99968.47
2023-04-23T14:24:08.887Z,99933.75
2023-04-23T14:26:57.122Z,99922.56
2023-04-23T14:29:56.850Z,99919.00
2023-04-23T14:32:48.445Z,99955.31
2023-04-23T14:38:29.472Z,99927.09
2023-04-23T14:41:17.207Z,99960.53
2023-04-23T14:44:04.864Z,99954.34
2023-04-23T14:46:53.401Z,99944.63
2023-04-23T14:49:41.986Z,99950.25
2023-04-23T14:52:30.517Z,99932.59
2023-04-23T14:55:18.502Z,99935.94
2023-04-23T14:58:06.649Z,99910.03
2023-04-23T15:00:54.584Z,99950.59
2023-04-23T15:03:44.708Z,99965.47
2023-04-23T15:06:32.685Z,99944.47
2023-04-23T15:09:20.453Z,99936.47
2023-04-23T15:12:38.258Z,99890.78
2023-04-23T15:15:36.796Z,99943.84
2023-04-23T15:18:29.161Z,99932.00
2023-04-23T15:21:19.797Z,99940.91
2023-04-23T15:24:08.095Z,99936.50
2023-04-23T15:26:58.282Z,99921.47
2023-04-23T15:29:45.932Z,99892.22
2023-04-23T15:32:33.743Z,99906.69
2023-04-23T15:35:30.385Z,99910.34
2023-04-23T15:38:19.070Z,99936.75
2023-04-23T15:41:06.933Z,99931.31
2023-04-23T15:43:55.840Z,99935.63
2023-04-23T15:46:43.573Z,99935.97
2023-04-23T15:49:31.457Z,99944.06
2023-04-23T15:52:19.213Z,99939.47
2023-04-23T15:55:07.858Z,99940.69
2023-04-23T15:57:55.902Z,99903.38
2023-04-23T16:00:46.953Z,99920.38
2023-04-23T16:03:35.039Z,99924.19
2023-04-23T16:06:24.231Z,99902.66
2023-04-23T16:09:16.519Z,99924.38
2023-04-23T16:12:04.899Z,99922.47
2023-04-23T16:14:52.678Z,99924.88
2023-04-23T16:17:40.700Z,99915.81
2023-04-23T16:20:29.024Z,99923.94
2023-04-23T16:23:16.770Z,99922.66
2023-04-23T16:26:08.867Z,99893.44
2023-04-23T16:29:16.773Z,99920.53
2023-04-23T16:32:05.768Z,99905.69
2023-04-23T16:34:53.496Z,99917.88
2023-04-23T16:37:41.397Z,99848.25
2023-04-23T16:40:29.613Z,99921.78
2023-04-23T16:43:20.546Z,99920.38
2023-04-23T16:46:10.981Z,99916.56
2023-04-23T16:48:58.704Z,99922.97
2023-04-23T16:51:46.452Z,99921.91
2023-04-23T16:54:36.358Z,99910.91
2023-04-23T16:57:24.256Z,99917.06
2023-04-23T17:00:12.970Z,99927.03
2023-04-23T17:03:00.765Z,99908.41
2023-04-23T17:06:00.400Z,99928.09
2023-04-23T17:08:48.275Z,99923.94
2023-04-23T17:11:36.692Z,99899.44
2023-04-23T17:14:24.511Z,99907.44
2023-04-23T17:17:12.177Z,99904.47
2023-04-23T17:19:59.898Z,99894.19
2023-04-23T17:22:47.537Z,99916.84
2023-04-23T17:25:35.405Z,99899.09
2023-04-23T17:28:23.201Z,99929.00
2023-04-23T17:31:11.550Z,99924.69
2023-04-23T17:34:02.204Z,99925.09
2023-04-23T17:36:49.883Z,99917.19
2023-04-23T17:39:37.569Z,99924.00
2023-04-23T17:42:25.387Z,99932.81
2023-04-23T17:45:13.126Z,99930.84
2023-04-23T17:48:00.940Z,99942.84
2023-04-23T17:50:48.612Z,99920.97
2023-04-23T17:53:36.703Z,99937.66
2023-04-23T17:56:25.401Z,99934.94
2023-04-23T17:59:13.283Z,99901.94
2023-04-23T18:02:10.185Z,99942.13
2023-04-23T18:04:59.584Z,99946.13
2023-04-23T18:07:47.403Z,99935.38
2023-04-23T18:10:35.210Z,99929.00
2023-04-23T18:13:22.940Z,99937.31
2023-04-23T18:16:10.887Z,99918.63
2023-04-23T18:18:59.537Z,99948.88
2023-04-23T18:21:48.056Z,99948.84
2023-04-23T18:24:38.297Z,99956.03
2023-04-23T18:27:26.163Z,99936.88
2023-04-23T18:30:15.563Z,99930.53
2023-04-23T18:33:14.048Z,99944.81
2023-04-23T18:36:05.909Z,99964.72
2023-04-23T18:38:54.094Z,99978.63
2023-04-23T18:41:41.784Z,99967.47
2023-04-23T18:44:30.102Z,99984.19
2023-04-23T18:47:19.427Z,99967.06
2023-04-23T18:50:29.325Z,99978.25
2023-04-23T18:53:17.220Z,99955.53
2023-04-23T18:56:05.379Z,99981.78
2023-04-23T18:58:53.139Z,99951.03
2023-04-23T19:01:42.499Z,99973.75
2023-04-23T19:04:32.196Z,99986.91
2023-04-23T19:07:20.103Z,99969.69
2023-04-23T19:10:08.607Z,99989.91
2023-04-23T19:12:56.769Z,99976.22
2023-04-23T19:15:44.354Z,99937.53
2023-04-23T19:18:32.341Z,99986.53
2023-04-23T19:21:19.986Z,99977.69
2023-04-23T19:24:08.111Z,99989.19
2023-04-23T19:26:55.718Z,99960.06
2023-04-23T19:29:43.671Z,99986.25
2023-04-23T19:32:35.626Z,99980.22
2023-04-23T19:35:23.433Z,99987.63
2023-04-23T19:38:11.162Z,99990.22
2023-04-23T19:41:01.799Z,99984.50
2023-04-23T19:43:49.508Z,99960.47
2023-04-23T19:46:37.437Z,99987.13
2023-04-23T19:49:26.376Z,99954.50
2023-04-23T19:52:20.030Z,99996.44
2023-04-23T19:55:08.217Z,99984.13
2023-04-23T19:57:56.729Z,99968.34
2023-04-23T20:00:46.855Z,99991.88
2023-04-23T20:03:37.756Z,99969.97
2023-04-23T20:06:26.773Z,99950.59
2023-04-23T20:09:22.161Z,99982.50
2023-04-23T20:12:09.842Z,99985.19
2023-04-23T20:15:03.690Z,99961.66
2023-04-23T20:17:51.936Z,99971.94
2023-04-23T20:20:42.128Z,99929.22
2023-04-23T20:23:29.784Z,99967.88
2023-04-23T20:26:19.016Z,99974.28
2023-04-23T20:29:12.788Z,99970.25
2023-04-23T20:32:08.509Z,99979.19
2023-04-23T20:34:56.512Z,99981.84
2023-04-23T20:37:44.254Z,99887.59
2023-04-23T20:40:34.807Z,99961.41
2023-04-23T20:43:44.255Z,99977.91
2023-04-23T20:46:32.923Z,99986.81
2023-04-23T20:49:25.508Z,99984.03
2023-04-23T20:52:14.784Z,99959.69
2023-04-23T20:55:02.763Z,99958.47
2023-04-23T20:57:50.554Z,99966.84
2023-04-23T21:00:39.264Z,99964.09
2023-04-23T21:03:27.751Z,99959.75
2023-04-23T21:06:15.835Z,99945.63
2023-04-23T21:09:04.829Z,99851.16
2023-04-23T21:11:52.598Z,99955.88
2023-04-23T21:14:40.275Z,99893.06
2023-04-23T21:17:28.451Z,99932.22
2023-04-23T21:20:16.330Z,99924.97
2023-04-23T21:23:04.098Z,99945.25
2023-04-23T21:25:51.994Z,99943.91
2023-04-23T21:28:39.777Z,99901.53
2023-04-23T21:31:42.261Z,99945.75
2023-04-23T21:34:29.896Z,99935.91
2023-04-23T21:37:17.534Z,99933.44
2023-04-23T21:40:06.313Z,99928.91
2023-04-23T21:42:56.199Z,99907.94
2023-04-23T21:45:44.074Z,99906.03
2023-04-23T21:48:34.212Z,99930.84
2023-04-23T21:51:23.198Z,99934.78
2023-04-23T21:54:10.896Z,99877.59
2023-04-23T21:56:58.683Z,99928.72
2023-04-23T21:59:46.369Z,99930.13
2023-04-23T22:02:34.207Z,99922.13
2023-04-23T22:05:23.397Z,99896.94
2023-04-23T22:08:11.175Z,99922.88
2023-04-23T22:10:58.835Z,99908.44
2023-04-23T22:13:46.581Z,99904.38
2023-04-23T22:16:34.469Z,99890.28
2023-04-23T22:19:22.432Z,99903.59
2023-04-23T22:22:10.036Z,99826.38
2023-04-23T22:24:57.755Z,99895.94
2023-04-23T22:27:45.379Z,99886.72
2023-04-23T22:30:33.262Z,99854.44
2023-04-23T22:33:21.333Z,99889.53
2023-04-23T22:36:09.199Z,99871.53
2023-04-23T22:38:56.963Z,99879.16
2023-04-23T22:41:45.743Z,99865.03
2023-04-23T22:44:33.342Z,99877.44
2023-04-23T22:47:21.395Z,99874.25
2023-04-23T22:50:09.497Z,99881.00
2023-04-23T22:52:57.398Z,99871.34
2023-04-23T22:55:46.365Z,99889.69
2023-04-23T22:58:34.272Z,99875.53
2023-04-23T23:01:21.873Z,99880.09
2023-04-23T23:04:13.287Z,99882.97
2023-04-23T23:07:01.618Z,99879.09
2023-04-23T23:09:49.337Z,99861.88
2023-04-23T23:12:37.397Z,99870.69
2023-04-23T23:15:27.444Z,99881.72
2023-04-23T23:18:15.056Z,99870.84
2023-04-23T23:21:03.148Z,99867.84
2023-04-23T23:23:51.186Z,99869.75
2023-04-23T23:26:38.783Z,99852.44
2023-04-23T23:29:26.519Z,99866.84
2023-04-23T23:32:14.273Z,99851.50
2023-04-23T23:35:02.308Z,99852.44
2023-04-23T23:37:50.024Z,99814.13
2023-04-23T23:40:38.236Z,99828.22
2023-04-23T23:43:29.006Z,99842.53
2023-04-23T23:46:20.187Z,99851.97
2023-04-23T23:49:08.583Z,99819.03
2023-04-23T23:51:56.726Z,99819.13
2023-04-23T23:54:45.628Z,99840.50
2023-04-23T23:57:33.692Z,99844.19
